createdAt,value
2017-09-06T00:00:10.938Z,992.36
2017-09-06T00:01:10.420Z,992.34
2017-09-06T00:02:10.423Z,992.34
2017-09-06T00:03:10.431Z,992.37
2017-09-06T00:04:10.433Z,992.32
2017-09-06T00:05:10.900Z,992.34
2017-09-06T00:06:10.436Z,992.32
2017-09-06T00:07:10.437Z,992.35
2017-09-06T00:08:10.438Z,992.39
2017-09-06T00:09:10.445Z,992.35
2017-09-06T00:10:10.982Z,992.34
2017-09-06T00:11:10.448Z,992.37
2017-09-06T00:12:10.450Z,992.37
2017-09-06T00:13:10.452Z,992.41
2017-09-06T00:14:10.457Z,992.46
2017-09-06T00:15:10.973Z,992.45
2017-09-06T00:16:10.462Z,992.45
2017-09-06T00:17:10.470Z,992.55
2017-09-06T00:18:10.468Z,992.53
2017-09-06T00:19:10.479Z,992.54
2017-09-06T00:20:10.959Z,992.54
2017-09-06T00:21:10.483Z,992.47
2017-09-06T00:22:10.488Z,992.43
2017-09-06T00:23:10.481Z,992.38
2017-09-06T00:24:10.483Z,992.4
2017-09-06T00:25:10.741Z,992.39
2017-09-06T00:26:10.488Z,992.42
2017-09-06T00:27:10.491Z,992.42
2017-09-06T00:28:10.494Z,992.36
2017-09-06T00:29:10.496Z,992.36
2017-09-06T00:30:11.023Z,992.32
2017-09-06T00:31:10.503Z,992.33
2017-09-06T00:32:10.504Z,992.28
2017-09-06T00:33:10.507Z,992.23
2017-09-06T00:34:10.510Z,992.24
2017-09-06T00:35:11.057Z,992.17
2017-09-06T00:36:10.514Z,992.15
2017-09-06T00:37:10.515Z,992.1
2017-09-06T00:38:10.517Z,992.09
2017-09-06T00:39:10.520Z,992.13
2017-09-06T00:40:11.007Z,992.15
2017-09-06T00:41:10.524Z,992.11
2017-09-06T00:42:10.527Z,992.18
2017-09-06T00:43:10.530Z,992.22
2017-09-06T00:44:10.532Z,992.21
2017-09-06T00:45:11.005Z,992.21
2017-09-06T00:46:10.536Z,992.15
2017-09-06T00:47:10.549Z,992.18
2017-09-06T00:48:10.541Z,992.14
2017-09-06T00:49:10.553Z,992.17
2017-09-06T00:50:11.037Z,992.15
2017-09-06T00:51:10.554Z,992.18
2017-09-06T00:52:10.554Z,992.2
2017-09-06T00:53:10.555Z,992.16
2017-09-06T00:54:10.555Z,992.16
2017-09-06T00:55:11.100Z,992.2
2017-09-06T00:56:10.559Z,992.19
2017-09-06T00:57:10.564Z,992.16
2017-09-06T00:58:10.564Z,992.21
2017-09-06T00:59:10.567Z,992.15
2017-09-06T01:00:11.103Z,992.19
2017-09-06T01:01:10.578Z,992.17
2017-09-06T01:02:10.574Z,992.14
2017-09-06T01:03:10.574Z,992.2
2017-09-06T01:04:10.586Z,992.15
2017-09-06T01:05:11.057Z,992.15
2017-09-06T01:06:10.583Z,992.17
2017-09-06T01:07:10.585Z,992.18
2017-09-06T01:08:10.588Z,992.17
2017-09-06T01:09:10.591Z,992.12
2017-09-06T01:10:11.150Z,992.13
2017-09-06T01:11:10.595Z,992.06
2017-09-06T01:12:10.597Z,991.99
2017-09-06T01:13:10.601Z,992.02
2017-09-06T01:14:10.603Z,991.99
2017-09-06T01:15:11.126Z,992
2017-09-06T01:16:10.608Z,992.01
2017-09-06T01:17:10.614Z,991.96
2017-09-06T01:18:10.612Z,991.94
2017-09-06T01:19:10.615Z,991.97
2017-09-06T01:20:11.192Z,991.97
2017-09-06T01:21:10.629Z,991.93
2017-09-06T01:22:10.631Z,991.92
2017-09-06T01:23:10.635Z,991.9
2017-09-06T01:24:10.631Z,991.94
2017-09-06T01:25:11.189Z,991.98
2017-09-06T01:26:10.636Z,991.99
2017-09-06T01:27:10.636Z,991.97
2017-09-06T01:28:10.637Z,991.97
2017-09-06T01:29:10.641Z,991.99
2017-09-06T01:30:11.201Z,991.98
2017-09-06T01:31:10.646Z,991.96
2017-09-06T01:32:10.648Z,991.98
2017-09-06T01:33:10.650Z,991.95
2017-09-06T01:34:10.653Z,991.92
2017-09-06T01:35:11.221Z,991.92
2017-09-06T01:36:10.657Z,991.88
2017-09-06T01:37:10.661Z,991.91
2017-09-06T01:38:10.663Z,991.91
2017-09-06T01:39:10.666Z,991.89
2017-09-06T01:40:11.229Z,991.9
2017-09-06T01:41:10.671Z,991.87
2017-09-06T01:42:10.673Z,991.84
2017-09-06T01:43:10.675Z,991.85
2017-09-06T01:44:10.677Z,991.85
2017-09-06T01:45:11.246Z,991.89
2017-09-06T01:46:10.683Z,991.89
2017-09-06T01:47:10.685Z,991.95
2017-09-06T01:48:10.687Z,991.97
2017-09-06T01:49:10.690Z,991.95
2017-09-06T01:50:11.237Z,991.95
2017-09-06T01:51:10.700Z,991.95
2017-09-06T01:52:10.703Z,991.96
2017-09-06T01:53:10.703Z,991.96
2017-09-06T01:54:10.706Z,991.97
2017-09-06T01:55:11.276Z,991.97
2017-09-06T01:56:10.706Z,992
2017-09-06T01:57:10.714Z,992
2017-09-06T01:58:10.710Z,991.99
2017-09-06T01:59:10.712Z,991.98
2017-09-06T02:00:11.005Z,991.99
2017-09-06T02:01:10.716Z,991.98
2017-09-06T02:02:10.719Z,992
2017-09-06T02:03:10.721Z,992.04
2017-09-06T02:04:10.749Z,992
2017-09-06T02:05:11.257Z,992.07
2017-09-06T02:06:10.726Z,992.01
2017-09-06T02:07:10.731Z,992.03
2017-09-06T02:08:10.732Z,992.04
2017-09-06T02:09:10.734Z,992.01
2017-09-06T02:10:11.267Z,991.99
2017-09-06T02:11:10.739Z,991.99
2017-09-06T02:12:10.753Z,991.95
2017-09-06T02:13:10.742Z,991.98
2017-09-06T02:14:10.744Z,991.95
2017-09-06T02:15:11.313Z,991.91
2017-09-06T02:16:10.747Z,991.93
2017-09-06T02:17:10.796Z,991.93
2017-09-06T02:18:10.767Z,991.96
2017-09-06T02:19:10.763Z,991.92
2017-09-06T02:20:11.331Z,991.9
2017-09-06T02:21:10.766Z,991.92
2017-09-06T02:22:10.767Z,991.91
2017-09-06T02:23:10.765Z,991.88
2017-09-06T02:24:10.768Z,991.85
2017-09-06T02:25:11.316Z,991.84
2017-09-06T02:26:10.767Z,991.82
2017-09-06T02:27:10.768Z,991.84
2017-09-06T02:28:10.770Z,991.82
2017-09-06T02:29:10.772Z,991.77
2017-09-06T02:30:11.330Z,991.77
2017-09-06T02:31:10.776Z,991.78
2017-09-06T02:32:10.779Z,991.77
2017-09-06T02:33:10.781Z,991.8
2017-09-06T02:34:10.783Z,991.76
2017-09-06T02:35:11.342Z,991.72
2017-09-06T02:36:10.788Z,991.74
2017-09-06T02:37:10.792Z,991.71
2017-09-06T02:38:10.788Z,991.71
2017-09-06T02:39:10.795Z,991.66
2017-09-06T02:40:11.365Z,991.64
2017-09-06T02:41:10.794Z,991.64
2017-09-06T02:42:10.799Z,991.63
2017-09-06T02:43:10.800Z,991.61
2017-09-06T02:44:10.802Z,991.61
2017-09-06T02:45:11.352Z,991.6
2017-09-06T02:46:10.804Z,991.61
2017-09-06T02:47:10.805Z,991.59
2017-09-06T02:48:10.808Z,991.58
2017-09-06T02:49:10.809Z,991.59
2017-09-06T02:50:11.363Z,991.58
2017-09-06T02:51:10.818Z,991.58
2017-09-06T02:52:10.822Z,991.6
2017-09-06T02:53:10.825Z,991.61
2017-09-06T02:54:10.824Z,991.64
2017-09-06T02:55:11.384Z,991.57
2017-09-06T02:56:10.825Z,991.55
2017-09-06T02:57:10.824Z,991.56
2017-09-06T02:58:10.826Z,991.53
2017-09-06T02:59:10.841Z,991.55
2017-09-06T03:00:11.403Z,991.59
2017-09-06T03:01:10.842Z,991.55
2017-09-06T03:02:10.840Z,991.55
2017-09-06T03:03:10.849Z,991.57
2017-09-06T03:04:10.844Z,991.56
2017-09-06T03:05:11.391Z,991.55
2017-09-06T03:06:10.846Z,991.55
2017-09-06T03:07:10.846Z,991.54
2017-09-06T03:08:10.846Z,991.57
2017-09-06T03:09:10.847Z,991.55
2017-09-06T03:10:11.583Z,991.52
2017-09-06T03:11:10.850Z,991.49
2017-09-06T03:12:10.856Z,991.48
2017-09-06T03:13:10.855Z,991.49
2017-09-06T03:14:10.856Z,991.45
2017-09-06T03:15:11.406Z,991.43
2017-09-06T03:16:10.872Z,991.43
2017-09-06T03:17:10.876Z,991.4
2017-09-06T03:18:10.874Z,991.45
2017-09-06T03:19:10.873Z,991.45
2017-09-06T03:20:11.380Z,991.45
2017-09-06T03:21:10.878Z,991.41
2017-09-06T03:22:10.879Z,991.38
2017-09-06T03:23:10.898Z,991.33
2017-09-06T03:24:10.884Z,991.3
2017-09-06T03:25:11.133Z,991.34
2017-09-06T03:26:10.885Z,991.34
2017-09-06T03:27:10.892Z,991.33
2017-09-06T03:28:10.883Z,991.31
2017-09-06T03:29:10.885Z,991.34
2017-09-06T03:30:11.109Z,991.37
2017-09-06T03:31:10.895Z,991.38
2017-09-06T03:32:10.893Z,991.37
2017-09-06T03:33:10.908Z,991.37
2017-09-06T03:34:10.898Z,991.29
2017-09-06T03:35:11.427Z,991.24
2017-09-06T03:36:10.903Z,991.3
2017-09-06T03:37:10.906Z,991.29
2017-09-06T03:38:10.911Z,991.26
2017-09-06T03:39:10.911Z,991.24
2017-09-06T03:40:11.497Z,991.28
2017-09-06T03:41:10.912Z,991.24
2017-09-06T03:42:10.911Z,991.21
2017-09-06T03:43:10.916Z,991.26
2017-09-06T03:44:10.912Z,991.24
2017-09-06T03:45:11.462Z,991.24
2017-09-06T03:46:10.918Z,991.24
2017-09-06T03:47:10.916Z,991.21
2017-09-06T03:48:10.922Z,991.24
2017-09-06T03:49:10.926Z,991.24
2017-09-06T03:50:11.512Z,991.26
2017-09-06T03:51:10.932Z,991.29
2017-09-06T03:52:10.935Z,991.28
2017-09-06T03:53:10.932Z,991.27
2017-09-06T03:54:10.933Z,991.3
2017-09-06T03:55:11.506Z,991.19
2017-09-06T03:56:10.962Z,991.23
2017-09-06T03:57:10.936Z,991.2
2017-09-06T03:58:10.953Z,991.26
2017-09-06T03:59:10.950Z,991.23
2017-09-06T04:00:11.535Z,991.16
2017-09-06T04:01:10.952Z,991.15
2017-09-06T04:02:10.957Z,991.17
2017-09-06T04:03:10.955Z,991.15
2017-09-06T04:04:10.956Z,991.1
2017-09-06T04:05:11.524Z,991.12
2017-09-06T04:06:10.958Z,991.11
2017-09-06T04:07:10.958Z,991.11
2017-09-06T04:08:10.958Z,991.13
2017-09-06T04:09:10.962Z,991.15
2017-09-06T04:10:11.497Z,991.17
2017-09-06T04:11:10.971Z,991.17
2017-09-06T04:12:10.973Z,991.21
2017-09-06T04:13:10.976Z,991.23
2017-09-06T04:14:10.976Z,991.28
2017-09-06T04:15:11.576Z,991.35
2017-09-06T04:16:10.975Z,991.35
2017-09-06T04:17:10.985Z,991.38
2017-09-06T04:18:10.981Z,991.39
2017-09-06T04:19:10.989Z,991.4
2017-09-06T04:20:11.543Z,991.43
2017-09-06T04:21:10.995Z,991.46
2017-09-06T04:22:10.985Z,991.51
2017-09-06T04:23:11.040Z,991.42
2017-09-06T04:24:10.992Z,991.46
2017-09-06T04:25:11.603Z,991.46
2017-09-06T04:26:10.996Z,991.46
2017-09-06T04:27:10.997Z,991.49
2017-09-06T04:28:11.001Z,991.48
2017-09-06T04:29:11.006Z,991.49
2017-09-06T04:30:12.266Z,991.57
2017-09-06T04:31:11.008Z,991.59
2017-09-06T04:32:11.011Z,991.68
2017-09-06T04:33:11.008Z,991.73
2017-09-06T04:34:11.012Z,991.73
2017-09-06T04:35:11.804Z,991.77
2017-09-06T04:36:11.012Z,991.75
2017-09-06T04:37:11.017Z,991.75
2017-09-06T04:38:11.016Z,991.74
2017-09-06T04:39:11.018Z,991.78
2017-09-06T04:40:13.739Z,991.76
2017-09-06T04:41:11.030Z,991.74
2017-09-06T04:42:11.025Z,991.71
2017-09-06T04:43:11.042Z,991.67
2017-09-06T04:44:11.028Z,991.68
2017-09-06T04:45:11.642Z,991.63
2017-09-06T04:46:11.033Z,991.67
2017-09-06T04:47:11.034Z,991.66
2017-09-06T04:48:11.047Z,991.62
2017-09-06T04:49:11.037Z,991.64
2017-09-06T04:50:11.599Z,991.59
2017-09-06T04:51:11.042Z,991.6
2017-09-06T04:52:11.045Z,991.62
2017-09-06T04:53:11.046Z,991.55
2017-09-06T04:54:11.046Z,991.57
2017-09-06T04:55:11.551Z,991.59
2017-09-06T04:56:11.051Z,991.55
2017-09-06T04:57:11.055Z,991.56
2017-09-06T04:58:11.056Z,991.62
2017-09-06T04:59:11.061Z,991.62
2017-09-06T05:00:11.632Z,991.64
2017-09-06T05:01:11.062Z,991.65
2017-09-06T05:02:11.064Z,991.62
2017-09-06T05:03:11.066Z,991.67
2017-09-06T05:04:11.068Z,991.66
2017-09-06T05:05:11.696Z,991.69
2017-09-06T05:06:11.077Z,991.69
2017-09-06T05:07:11.079Z,991.7
2017-09-06T05:08:11.075Z,991.73
2017-09-06T05:09:11.079Z,991.71
2017-09-06T05:10:11.629Z,991.74
2017-09-06T05:11:11.081Z,991.7
2017-09-06T05:12:11.085Z,991.75
2017-09-06T05:13:11.087Z,991.73
2017-09-06T05:14:11.089Z,991.75
2017-09-06T05:15:11.664Z,991.75
2017-09-06T05:16:11.097Z,991.78
2017-09-06T05:17:11.096Z,991.82
2017-09-06T05:18:11.098Z,991.79
2017-09-06T05:19:11.107Z,991.8
2017-09-06T05:20:11.685Z,991.81
2017-09-06T05:21:11.106Z,991.79
2017-09-06T05:22:11.115Z,991.78
2017-09-06T05:23:11.109Z,991.74
2017-09-06T05:24:11.112Z,991.81
2017-09-06T05:25:11.676Z,991.81
2017-09-06T05:26:11.121Z,991.76
2017-09-06T05:27:11.119Z,991.81
2017-09-06T05:28:11.129Z,991.8
2017-09-06T05:29:11.122Z,991.73
2017-09-06T05:30:11.698Z,991.76
2017-09-06T05:31:11.127Z,991.74
2017-09-06T05:32:11.132Z,991.81
2017-09-06T05:33:11.130Z,991.8
2017-09-06T05:34:11.138Z,991.8
2017-09-06T05:35:11.613Z,991.82
2017-09-06T05:36:11.138Z,991.82
2017-09-06T05:37:11.140Z,991.88
2017-09-06T05:38:11.142Z,991.91
2017-09-06T05:39:11.144Z,991.93
2017-09-06T05:40:11.631Z,991.96
2017-09-06T05:41:11.152Z,992.01
2017-09-06T05:42:11.159Z,992.02
2017-09-06T05:43:11.154Z,992.06
2017-09-06T05:44:11.155Z,992.02
2017-09-06T05:45:11.677Z,992.02
2017-09-06T05:46:11.412Z,991.98
2017-09-06T05:47:11.167Z,991.99
2017-09-06T05:48:11.166Z,991.99
2017-09-06T05:49:11.168Z,991.99
2017-09-06T05:50:11.628Z,991.96
2017-09-06T05:51:11.175Z,991.95
2017-09-06T05:52:11.177Z,991.94
2017-09-06T05:53:11.181Z,991.9
2017-09-06T05:54:11.186Z,991.96
2017-09-06T05:55:11.744Z,991.91
2017-09-06T05:56:11.196Z,991.97
2017-09-06T05:57:11.190Z,991.99
2017-09-06T05:58:11.191Z,992.06
2017-09-06T05:59:11.195Z,992.09
2017-09-06T06:00:11.797Z,992.11
2017-09-06T06:01:11.201Z,992.12
2017-09-06T06:02:11.203Z,992.14
2017-09-06T06:03:11.212Z,992.14
2017-09-06T06:04:11.209Z,992.17
2017-09-06T06:05:11.814Z,992.18
2017-09-06T06:06:11.215Z,992.22
2017-09-06T06:07:11.217Z,992.25
2017-09-06T06:08:11.220Z,992.2
2017-09-06T06:09:11.224Z,992.2
2017-09-06T06:10:11.795Z,992.18
2017-09-06T06:11:11.229Z,992.15
2017-09-06T06:12:11.233Z,992.15
2017-09-06T06:13:11.234Z,992.11
2017-09-06T06:14:11.238Z,992.09
2017-09-06T06:15:11.818Z,992.1
2017-09-06T06:16:11.245Z,992.13
2017-09-06T06:17:11.248Z,992.17
2017-09-06T06:18:11.251Z,992.13
2017-09-06T06:19:11.253Z,992.13
2017-09-06T06:20:11.830Z,992.13
2017-09-06T06:21:11.267Z,992.12
2017-09-06T06:22:11.264Z,992.1
2017-09-06T06:23:11.267Z,992.09
2017-09-06T06:24:11.268Z,992.13
2017-09-06T06:25:11.720Z,992.14
2017-09-06T06:26:11.275Z,992.21
2017-09-06T06:27:11.280Z,992.26
2017-09-06T06:28:11.284Z,992.26
2017-09-06T06:29:11.286Z,992.24
2017-09-06T06:30:11.914Z,992.27
2017-09-06T06:31:11.295Z,992.26
2017-09-06T06:32:11.298Z,992.2
2017-09-06T06:33:11.302Z,992.18
2017-09-06T06:34:11.308Z,992.19
2017-09-06T06:35:11.921Z,992.18
2017-09-06T06:36:11.313Z,992.12
2017-09-06T06:37:11.318Z,992.16
2017-09-06T06:38:11.360Z,992.2
2017-09-06T06:39:11.325Z,992.16
2017-09-06T06:40:11.784Z,992.18
2017-09-06T06:41:11.335Z,992.18
2017-09-06T06:42:11.343Z,992.15
2017-09-06T06:43:11.345Z,992.21
2017-09-06T06:44:11.347Z,992.23
2017-09-06T06:45:11.981Z,992.19
2017-09-06T06:46:12.157Z,992.21
2017-09-06T06:47:11.359Z,992.19
2017-09-06T06:48:11.363Z,992.17
2017-09-06T06:49:11.368Z,992.16
2017-09-06T06:50:11.732Z,992.16
2017-09-06T06:51:11.375Z,992.11
2017-09-06T06:52:11.380Z,992.1
2017-09-06T06:53:11.384Z,992.07
2017-09-06T06:54:11.390Z,992.04
2017-09-06T06:55:12.043Z,992.05
2017-09-06T06:56:11.396Z,992.11
2017-09-06T06:57:11.400Z,992.12
2017-09-06T06:58:11.408Z,992.18
2017-09-06T06:59:11.409Z,992.17
2017-09-06T07:00:11.996Z,992.14
2017-09-06T07:01:11.418Z,992.21
2017-09-06T07:02:11.425Z,992.15
2017-09-06T07:03:11.427Z,992.17
2017-09-06T07:04:11.430Z,992.1
2017-09-06T07:05:11.813Z,992.14
2017-09-06T07:06:11.441Z,992.18
2017-09-06T07:07:11.447Z,992.17
2017-09-06T07:08:11.450Z,992.14
2017-09-06T07:09:11.455Z,992.11
2017-09-06T07:10:12.107Z,992.13
2017-09-06T07:11:11.465Z,992.1
2017-09-06T07:12:11.469Z,992.09
2017-09-06T07:13:11.489Z,992.13
2017-09-06T07:14:11.493Z,992.06
2017-09-06T07:15:12.118Z,992.14
2017-09-06T07:16:11.490Z,992.09
2017-09-06T07:17:11.495Z,992.11
2017-09-06T07:18:11.499Z,992.05
2017-09-06T07:19:11.499Z,992.07
2017-09-06T07:20:12.164Z,992.07
2017-09-06T07:21:11.543Z,992.11
2017-09-06T07:22:11.524Z,992.13
2017-09-06T07:23:11.516Z,992.02
2017-09-06T07:24:11.521Z,992.03
2017-09-06T07:25:11.833Z,992.12
2017-09-06T07:26:11.529Z,992.07
2017-09-06T07:27:11.540Z,992.01
2017-09-06T07:28:11.542Z,992.09
2017-09-06T07:29:11.551Z,992.1
2017-09-06T07:30:12.198Z,992.08
2017-09-06T07:31:11.558Z,992.08
2017-09-06T07:32:11.560Z,992.04
2017-09-06T07:33:11.569Z,992.07
2017-09-06T07:34:11.566Z,992.03
2017-09-06T07:35:12.222Z,992.02
2017-09-06T07:36:11.578Z,992.04
2017-09-06T07:37:11.582Z,992.02
2017-09-06T07:38:11.588Z,992.02
2017-09-06T07:39:11.595Z,992.03
2017-09-06T07:40:12.269Z,992.05
2017-09-06T07:41:11.607Z,992.05
2017-09-06T07:42:11.614Z,992.09
2017-09-06T07:43:11.620Z,992.1
2017-09-06T07:44:11.626Z,992.15
2017-09-06T07:45:12.197Z,992.22
2017-09-06T07:46:11.640Z,992.17
2017-09-06T07:47:11.647Z,992.1
2017-09-06T07:48:11.663Z,992.2
2017-09-06T07:49:11.672Z,992.18
2017-09-06T07:50:12.295Z,992.1
2017-09-06T07:51:11.675Z,992.13
2017-09-06T07:52:11.681Z,992.1
2017-09-06T07:53:11.688Z,992.08
2017-09-06T07:54:11.694Z,992.06
2017-09-06T07:55:12.031Z,992.09
2017-09-06T07:56:11.707Z,992.14
2017-09-06T07:57:11.715Z,992.16
2017-09-06T07:58:11.729Z,992.06
2017-09-06T07:59:11.729Z,992.04
2017-09-06T08:00:12.210Z,992.02
2017-09-06T08:01:11.743Z,992.01
2017-09-06T08:02:11.744Z,991.99
2017-09-06T08:03:11.752Z,991.98
2017-09-06T08:04:11.758Z,991.96
2017-09-06T08:05:12.020Z,992
2017-09-06T08:06:11.769Z,991.94
2017-09-06T08:07:11.775Z,991.96
2017-09-06T08:08:11.782Z,991.96
2017-09-06T08:09:11.791Z,992.03
2017-09-06T08:10:12.419Z,992.02
2017-09-06T08:11:11.806Z,992.02
2017-09-06T08:12:11.809Z,992
2017-09-06T08:13:11.815Z,992.02
2017-09-06T08:14:11.820Z,991.97
2017-09-06T08:15:12.380Z,991.95
2017-09-06T08:16:11.833Z,991.94
2017-09-06T08:17:11.838Z,992
2017-09-06T08:18:11.845Z,991.93
2017-09-06T08:19:11.856Z,991.86
2017-09-06T08:20:12.520Z,991.93
2017-09-06T08:21:11.864Z,991.91
2017-09-06T08:22:11.874Z,991.9
2017-09-06T08:23:11.881Z,991.84
2017-09-06T08:24:11.889Z,991.78
2017-09-06T08:25:12.423Z,991.81
2017-09-06T08:26:11.900Z,991.91
2017-09-06T08:27:11.905Z,991.92
2017-09-06T08:28:11.910Z,991.9
2017-09-06T08:29:11.919Z,991.87
2017-09-06T08:30:11.930Z,991.94
2017-09-06T08:31:11.938Z,991.92
2017-09-06T08:32:11.939Z,991.88
2017-09-06T08:33:11.946Z,991.95
2017-09-06T08:34:11.963Z,991.97
2017-09-06T08:35:12.326Z,992.02
2017-09-06T08:36:11.967Z,992.01
2017-09-06T08:37:11.974Z,992.06
2017-09-06T08:38:11.980Z,992.09
2017-09-06T08:39:11.984Z,992.04
2017-09-06T08:40:12.348Z,991.98
2017-09-06T08:41:11.997Z,991.98
2017-09-06T08:42:12.002Z,991.98
2017-09-06T08:43:12.009Z,992.01
2017-09-06T08:44:12.015Z,991.94
2017-09-06T08:45:12.729Z,991.99
2017-09-06T08:46:12.027Z,991.91
2017-09-06T08:47:12.032Z,991.89
2017-09-06T08:48:12.038Z,991.89
2017-09-06T08:49:12.045Z,991.94
2017-09-06T08:50:12.706Z,991.9
2017-09-06T08:51:12.054Z,991.87
2017-09-06T08:52:12.059Z,991.89
2017-09-06T08:53:12.065Z,991.92
2017-09-06T08:54:12.068Z,991.93
2017-09-06T08:55:12.734Z,991.97
2017-09-06T08:56:12.081Z,991.97
2017-09-06T08:57:12.089Z,991.97
2017-09-06T08:58:12.120Z,992.04
2017-09-06T08:59:12.121Z,991.97
2017-09-06T09:00:12.806Z,992.01
2017-09-06T09:01:12.106Z,991.99
2017-09-06T09:02:12.110Z,991.93
2017-09-06T09:03:12.115Z,991.89
2017-09-06T09:04:12.120Z,991.94
2017-09-06T09:57:29.700Z,991.67
2017-09-06T09:58:29.697Z,991.67
2017-09-06T09:59:29.701Z,991.76
2017-09-06T10:00:29.709Z,991.73
2017-09-06T10:01:29.723Z,991.74
2017-09-06T10:02:29.724Z,991.74
2017-09-06T10:03:29.720Z,991.72
2017-09-06T10:04:29.730Z,991.78
2017-09-06T10:05:29.730Z,991.78
2017-09-06T10:06:29.740Z,991.87
2017-09-06T10:07:29.748Z,991.79
2017-09-06T10:08:29.744Z,991.82
2017-09-06T10:09:29.775Z,991.81
2017-09-06T10:10:29.768Z,991.76
2017-09-06T10:11:29.779Z,991.85
2017-09-06T10:12:31.913Z,991.82
2017-09-06T10:13:29.768Z,991.83
2017-09-06T10:14:29.787Z,991.8
2017-09-06T10:15:29.814Z,991.75
2017-09-06T10:16:29.792Z,991.7
2017-09-06T10:17:29.786Z,991.68
2017-09-06T10:18:29.795Z,991.68
2017-09-06T10:19:29.803Z,991.71
2017-09-06T10:20:29.812Z,991.72
2017-09-06T10:21:29.818Z,991.63
2017-09-06T10:22:29.900Z,991.62
2017-09-06T10:23:29.818Z,991.5
2017-09-06T10:24:29.822Z,991.51
2017-09-06T10:25:29.835Z,991.47
2017-09-06T10:26:29.838Z,991.42
2017-09-06T10:27:29.848Z,991.45
2017-09-06T10:28:29.847Z,991.47
2017-09-06T10:29:29.843Z,991.51
2017-09-06T10:30:29.848Z,991.55
2017-09-06T10:31:29.860Z,991.52
2017-09-06T10:32:29.878Z,991.56
2017-09-06T10:33:29.857Z,991.57
2017-09-06T10:34:29.883Z,991.61
2017-09-06T10:35:29.886Z,991.57
2017-09-06T10:36:29.877Z,991.61
2017-09-06T10:37:29.899Z,991.62
2017-09-06T10:38:29.902Z,991.61
2017-09-06T10:39:29.904Z,991.62
2017-09-06T10:40:29.895Z,991.65
2017-09-06T10:41:29.909Z,991.69
2017-09-06T10:42:29.905Z,991.56
2017-09-06T10:43:29.941Z,991.58
2017-09-06T10:44:29.933Z,991.55
2017-09-06T10:45:29.928Z,991.53
2017-09-06T10:46:29.952Z,991.55
2017-09-06T10:47:29.931Z,991.56
2017-09-06T10:48:29.953Z,991.57
2017-09-06T10:49:29.956Z,991.56
2017-09-06T10:50:29.948Z,991.51
2017-09-06T10:51:29.959Z,991.47
2017-09-06T10:52:29.966Z,991.36
2017-09-06T10:53:29.972Z,991.43
2017-09-06T10:54:29.973Z,991.47
2017-09-06T10:55:29.970Z,991.53
2017-09-06T10:56:29.994Z,991.43
2017-09-06T10:57:29.986Z,991.45
2017-09-06T10:58:30.010Z,991.56
2017-09-06T10:59:30.003Z,991.63
2017-09-06T11:00:30.002Z,991.72
2017-09-06T11:01:30.002Z,991.74
2017-09-06T11:02:30.016Z,991.7
2017-09-06T11:03:30.015Z,991.71
2017-09-06T11:04:30.011Z,991.71
2017-09-06T11:05:30.028Z,991.79
2017-09-06T11:06:30.016Z,991.81
2017-09-06T11:07:30.030Z,991.78
2017-09-06T11:08:30.026Z,991.78
2017-09-06T11:09:30.034Z,991.71
2017-09-06T11:10:30.043Z,991.7
2017-09-06T11:11:30.044Z,991.72
2017-09-06T11:12:30.046Z,991.76
2017-09-06T11:13:30.050Z,991.74
2017-09-06T11:14:30.058Z,991.7
2017-09-06T11:15:30.061Z,991.71
2017-09-06T11:16:30.057Z,991.69
2017-09-06T11:17:30.067Z,991.63
2017-09-06T11:18:30.064Z,991.67
2017-09-06T11:19:30.082Z,991.67
2017-09-06T11:20:30.073Z,991.72
2017-09-06T11:21:30.076Z,991.75
2017-09-06T11:22:30.093Z,991.66
2017-09-06T11:23:30.084Z,991.59
2017-09-06T11:24:30.088Z,991.58
2017-09-06T11:25:30.093Z,991.54
2017-09-06T11:26:30.098Z,991.51
2017-09-06T11:27:30.106Z,991.51
2017-09-06T11:28:30.110Z,991.52
2017-09-06T11:29:30.112Z,991.57
2017-09-06T11:30:30.118Z,991.8
2017-09-06T11:31:30.126Z,991.97
2017-09-06T11:32:30.125Z,991.99
2017-09-06T11:33:30.131Z,992.02
2017-09-06T11:34:30.136Z,992.07
2017-09-06T11:35:30.137Z,992.14
2017-09-06T11:36:30.184Z,992.15
2017-09-06T11:37:30.149Z,992.19
2017-09-06T11:38:30.149Z,992.16
2017-09-06T11:39:30.152Z,992.12
2017-09-06T11:40:30.170Z,992.14
2017-09-06T11:41:30.158Z,992.2
2017-09-06T11:42:30.163Z,992.2
2017-09-06T11:43:31.265Z,992.24
2017-09-06T11:44:30.167Z,992.22
2017-09-06T11:45:30.170Z,992.19
2017-09-06T11:46:30.174Z,992.19
2017-09-06T11:47:30.178Z,992.23
2017-09-06T11:48:30.180Z,992.2
2017-09-06T11:49:30.182Z,992.26
2017-09-06T11:50:30.194Z,992.28
2017-09-06T11:51:30.195Z,992.23
2017-09-06T11:52:30.198Z,992.23
2017-09-06T11:53:30.193Z,992.23
2017-09-06T11:54:30.198Z,992.22
2017-09-06T11:55:30.199Z,992.24
2017-09-06T11:56:30.208Z,992.29
2017-09-06T11:57:30.205Z,992.27
2017-09-06T11:58:30.206Z,992.21
2017-09-06T11:59:30.216Z,992.12
2017-09-06T12:00:30.214Z,992.14
2017-09-06T12:01:30.226Z,992.22
2017-09-06T12:02:30.223Z,992.18
2017-09-06T12:03:30.225Z,992.19
2017-09-06T12:04:30.407Z,992.14
2017-09-06T12:05:30.413Z,992.08
2017-09-06T12:06:30.427Z,991.93
2017-09-06T12:07:30.238Z,991.97
2017-09-06T12:08:30.244Z,992.02
2017-09-06T12:09:30.256Z,992.01
2017-09-06T12:10:30.250Z,991.99
2017-09-06T12:11:30.253Z,991.94
2017-09-06T12:12:30.264Z,991.91
2017-09-06T12:13:30.266Z,992.07
2017-09-06T12:14:30.266Z,992.12
2017-09-06T12:15:30.269Z,992.07
2017-09-06T12:16:30.270Z,992.17
2017-09-06T12:17:30.274Z,992.12
2017-09-06T12:18:30.281Z,992.2
2017-09-06T12:19:30.283Z,992.26
2017-09-06T12:20:30.286Z,992.16
2017-09-06T12:21:30.290Z,992.02
2017-09-06T12:22:30.293Z,992.03
2017-09-06T12:23:30.296Z,992.09
2017-09-06T12:24:30.300Z,991.99
2017-09-06T12:25:30.303Z,991.94
2017-09-06T12:26:30.308Z,991.92
2017-09-06T12:27:30.309Z,991.89
2017-09-06T12:28:30.312Z,991.88
2017-09-06T12:29:30.317Z,991.83
2017-09-06T12:30:30.322Z,991.81
2017-09-06T12:31:30.325Z,991.77
2017-09-06T12:32:30.334Z,991.76
2017-09-06T12:33:30.332Z,991.77
2017-09-06T12:34:30.335Z,991.79
2017-09-06T12:35:30.338Z,991.76
2017-09-06T12:36:30.342Z,991.85
2017-09-06T12:37:30.346Z,991.84
2017-09-06T12:38:30.348Z,991.82
2017-09-06T12:39:30.351Z,991.84
2017-09-06T12:40:30.359Z,991.85
2017-09-06T12:41:30.359Z,991.74
2017-09-06T12:42:30.368Z,991.78
2017-09-06T12:43:30.366Z,991.77
2017-09-06T12:44:30.377Z,991.74
2017-09-06T12:45:30.370Z,991.77
2017-09-06T12:46:30.374Z,991.69
2017-09-06T12:47:30.380Z,991.76
2017-09-06T12:48:30.382Z,991.76
2017-09-06T12:49:30.385Z,991.78
2017-09-06T12:50:30.388Z,991.72
2017-09-06T12:51:30.391Z,991.71
2017-09-06T12:52:30.394Z,991.77
2017-09-06T12:53:30.397Z,991.81
2017-09-06T12:54:30.400Z,991.7
2017-09-06T12:55:30.404Z,991.74
2017-09-06T12:56:30.407Z,991.74
2017-09-06T12:57:30.409Z,991.71
2017-09-06T12:58:30.417Z,991.74
2017-09-06T12:59:30.417Z,991.84
2017-09-06T13:00:30.428Z,991.82
2017-09-06T13:01:30.433Z,991.8
2017-09-06T13:02:30.427Z,991.78
2017-09-06T13:03:30.431Z,991.73
2017-09-06T13:04:30.434Z,991.74
2017-09-06T13:05:30.439Z,991.74
2017-09-06T13:06:30.479Z,991.75
2017-09-06T13:07:30.443Z,991.78
2017-09-06T13:08:30.453Z,991.77
2017-09-06T13:09:30.449Z,991.83
2017-09-06T13:10:30.469Z,991.81
2017-09-06T13:11:30.456Z,991.84
2017-09-06T13:12:30.460Z,991.9
2017-09-06T13:13:30.462Z,991.9
2017-09-06T13:14:30.466Z,991.84
2017-09-06T13:15:30.468Z,991.8
2017-09-06T13:16:30.483Z,991.86
2017-09-06T13:17:30.490Z,991.87
2017-09-06T13:18:30.486Z,991.77
2017-09-06T13:19:30.488Z,991.91
2017-09-06T13:20:30.488Z,991.84
2017-09-06T13:21:30.489Z,991.8
2017-09-06T13:22:30.495Z,991.67
2017-09-06T13:23:30.504Z,991.74